This is the latest recevied weather packets stored in our database for station/object EA1JVZ-1. If no packets are shown the sender has not sent any weather packets the latest 1 day(s).
| Time | Temp. | Humidity | Pressure | Rain* | Wind** | Luminosity | Snow |
|---|---|---|---|---|---|---|---|
| 1778079969 | 33.33° C | 33% | 1021.1 hPa | - | - | - | - |
| 1778079069 | 28.89° C | 36% | 1021.3 hPa | - | - | - | - |
| 1778073668 | 32.22° C | 35% | 1022 hPa | - | - | - | - |
| 1778071868 | 25° C | 41% | 1022.3 hPa | - | - | - | - |
| 1778069167 | 26.67° C | 38% | 1022.8 hPa | - | - | - | - |
| 1778064666 | 13.89° C | 47% | 1023.5 hPa | - | - | - | - |
| 1778063766 | 13.89° C | 47% | 1023.5 hPa | - | - | - | - |
| 1778059265 | 12.78° C | 46% | 1023.8 hPa | - | - | - | - |
| 1778058365 | 12.22° C | 46% | 1023.7 hPa | - | - | - | - |
| 1778057465 | 12.22° C | 46% | 1023.7 hPa | - | - | - | - |
| 1778056565 | 11.67° C | 46% | 1023.9 hPa | - | - | - | - |
| 1778054764 | 10° C | 48% | 1023.8 hPa | - | - | - | - |
| 1778053864 | 8.89° C | 49% | 1023.7 hPa | - | - | - | - |
| 1778048463 | 6.67° C | 48% | 1023.5 hPa | - | - | - | - |
| 1778043962 | 6.11° C | 48% | 1023.3 hPa | - | - | - | - |
| 1778043062 | 6.11° C | 48% | 1023.3 hPa | - | - | - | - |
| 1778040361 | 6.67° C | 48% | 1023.3 hPa | - | - | - | - |
| 1778039461 | 7.22° C | 49% | 1023.4 hPa | - | - | - | - |
| 1778038561 | 7.78° C | 50% | 1023.5 hPa | - | - | - | - |
| 1778036761 | 8.33° C | 48% | 1023.9 hPa | - | - | - | - |
| 1778034960 | 8.33° C | 49% | 1023.8 hPa | - | - | - | - |
| 1778034060 | 7.78° C | 50% | 1023.8 hPa | - | - | - | - |
| 1778033160 | 7.78° C | 50% | 1023.9 hPa | - | - | - | - |
| 1778031359 | 8.33° C | 48% | 1024.1 hPa | - | - | - | - |
| 1778030459 | 8.33° C | 50% | 1024 hPa | - | - | - | - |
* Rain since midnight (hover to see other rain measurements)
** Current wind speed in m/s (hover to see current wind gust speed)